Aeroporto :
LOGIN :

Iscrizione | Disclaimer

   EN    FR    IT 

 










Sommario :    VFR   VFR Marginale   IFR   IFR Intensivo   IFR Molto Intensivo
Visibilità : 
Base nubi : 
>= 8 km
>= 3000ft
5 / 8 km
1000 / 3000 ft
1500m / 5 km
500 / 1000 ft
800 / 1500m
200 / 500 ft
< 800m
< 200 ft
Simboli :   Temporali  Nebbia  Neve Forte  Precipitazioni Forti  Vento > 20 kt
SIGMETs :   Varie  Temporali  Ghiacco  Turbolenza  Onda orograficha  Ceneri Vulcaniche






- Altitudine del aeroporto : 915 ft
- Codice IATA : LUG


LSZA - Lugano

ULTIMO METAR :
  • 191750Z VRB03KT 5000 -DZ BR FEW005 OVC040 07/07 Q1017 NOSIG

METARs OBSOLETI :
  • 191720Z VRB02KT 7000 -DZ FEW005 OVC042 06/06 Q1017 TEMPO 4000
  • 191650Z VRB02KT 7000 DZ FEW005 OVC042 07/07 Q1016 TEMPO 4000
  • 191620Z VRB02KT 8000 -RA FEW005 OVC042 07/06 Q1016 NOSIG
  • 191550Z VRB03KT 8000 -RA FEW005 OVC042 07/07 Q1016 NOSIG
  • 191520Z 14003KT 100V180 9000 -RA FEW005 OVC048 07/07 Q1016 NOSIG

TAF TAF LSZA
Valido dal 19 a 15 ore il 20 a 00 ore UTC


191425Z 1915/1924 VRB03KT 9999 -RA FEW005 OVC045
ATIS : +41 22 417 40 88



MetMap, La meteo Aeronautica in un colpo d'occhio ! - Copyright ORBIFLY Dicembre 2007 - Disclaimer

ORBIFLY MET'MAP TEAM :

Programmazione e sviluppo : Alexandra Zaïnal
Concezione e sviluppo : Baudouin d'Aumeries
Co-Programmazione e sviluppo : Marc-Olivier Méhu
Supporto tecnico e logistico : Manuel Goepfert
Aiuto per la traduzione : Arnaldo La Scala

Contatto : metmap@orbifly.com




FONTI E CREDITI :

   NOAA